Time;durP1;ratioP1;P1;durP2;ratioP2;P2;SDS_P1;SDS_P2;PMS_P1;PMS_P2;Temp;Humidity;BMP_temperature;BMP_pressure;BME280_temperature;BME280_humidity;BME280_pressure;Samples;Min_cycle;Max_cycle;Signal;HPM_P1;HPM_P2
2022/05/07 00:01:36;;;;;;;13.10;9.90;;;12.10;99.90;;;;;;5115872;28;20036;-77
2022/05/07 00:04:02;;;;;;;13.63;9.95;;;12.10;99.90;;;;;;5115145;28;20096;-76
2022/05/07 00:06:28;;;;;;;13.07;9.73;;;12.10;99.90;;;;;;5115587;28;20085;-77
2022/05/07 00:08:54;;;;;;;14.30;10.20;;;12.10;99.90;;;;;;5115557;28;20115;-77
2022/05/07 00:11:20;;;;;;;15.50;10.73;;;12.10;99.90;;;;;;5115563;28;20047;-76
2022/05/07 00:13:50;;;;;;;16.35;10.68;;;12.10;99.90;;;;;;5115049;28;20073;-77
2022/05/07 00:19:00;;;;;;;16.38;10.27;;;12.10;99.90;;;;;;5115304;28;20130;-77
2022/05/07 00:21:26;;;;;;;15.37;10.57;;;12.10;99.90;;;;;;5115357;28;20082;-77
2022/05/07 00:23:52;;;;;;;14.32;9.75;;;12.10;99.90;;;;;;5114135;28;20073;-77
2022/05/07 00:26:17;;;;;;;17.27;10.60;;;12.10;99.90;;;;;;5115246;28;20046;-77
2022/05/07 00:28:44;;;;;;;15.43;11.00;;;12.20;99.90;;;;;;5115227;28;20104;-75
2022/05/07 00:31:10;;;;;;;13.25;9.77;;;12.20;99.90;;;;;;5115042;28;20052;-76
2022/05/07 00:33:36;;;;;;;16.77;11.43;;;12.20;99.90;;;;;;5115087;28;20104;-76
2022/05/07 00:36:02;;;;;;;20.52;11.27;;;12.20;99.90;;;;;;5115280;28;20372;-75
2022/05/07 00:38:27;;;;;;;13.52;9.90;;;12.20;99.90;;;;;;5115134;28;20043;-75
2022/05/07 00:40:53;;;;;;;14.90;10.65;;;12.20;99.90;;;;;;5115129;28;20046;-76
2022/05/07 00:43:19;;;;;;;14.83;10.90;;;12.20;99.90;;;;;;5114611;28;20050;-75
2022/05/07 00:45:49;;;;;;;16.20;11.40;;;12.10;99.90;;;;;;5114660;28;20050;-77
2022/05/07 00:48:16;;;;;;;16.33;10.88;;;12.20;99.90;;;;;;5114713;28;20044;-77
2022/05/07 00:53:26;;;;;;;16.90;11.15;;;12.20;99.90;;;;;;5114672;28;19920;-76
2022/05/07 00:55:52;;;;;;;15.80;11.20;;;12.20;99.90;;;;;;5114736;28;20040;-77
2022/05/07 00:58:20;;;;;;;16.92;11.25;;;12.20;99.90;;;;;;5114615;28;20039;-76
2022/05/07 01:00:46;;;;;;;19.98;12.43;;;12.20;99.90;;;;;;5113687;28;20050;-76
2022/05/07 01:03:12;;;;;;;16.73;11.57;;;12.20;99.90;;;;;;5114171;28;20036;-76
2022/05/07 01:05:39;;;;;;;16.05;11.43;;;12.20;99.90;;;;;;5113530;28;20105;-76
2022/05/07 01:08:08;;;;;;;17.10;11.63;;;12.30;99.90;;;;;;5114476;28;20039;-76
2022/05/07 01:10:34;;;;;;;15.10;10.52;;;12.30;99.90;;;;;;5114443;28;20040;-76
2022/05/07 01:13:00;;;;;;;14.88;9.77;;;12.30;99.90;;;;;;5114174;28;20079;-75
2022/05/07 01:15:25;;;;;;;14.83;11.13;;;12.30;99.90;;;;;;5114345;28;20083;-75
2022/05/07 01:17:51;;;;;;;18.23;10.80;;;12.30;99.90;;;;;;5114494;28;20062;-76
2022/05/07 01:20:17;;;;;;;17.60;11.35;;;12.30;99.90;;;;;;5114313;28;20040;-75
2022/05/07 01:22:44;;;;;;;19.73;12.35;;;12.30;99.90;;;;;;5114481;28;20444;-75
2022/05/07 01:25:09;;;;;;;19.45;12.02;;;12.30;99.90;;;;;;5114036;28;20479;-76
2022/05/07 01:27:35;;;;;;;19.95;11.48;;;12.30;99.90;;;;;;5114268;28;20044;-77
2022/05/07 01:30:00;;;;;;;21.25;13.57;;;12.30;99.90;;;;;;5114192;28;20471;-76
2022/05/07 01:32:26;;;;;;;16.92;12.05;;;12.30;99.90;;;;;;5114210;28;20032;-76
2022/05/07 01:34:53;;;;;;;16.25;11.73;;;12.30;99.90;;;;;;5114104;28;20055;-76
2022/05/07 01:37:19;;;;;;;;;;;12.30;99.90;;;;;;5114557;28;20056;-76
2022/05/07 01:39:45;;;;;;;17.80;12.07;;;12.30;99.90;;;;;;5114039;28;20402;-76
2022/05/07 01:42:10;;;;;;;17.93;12.70;;;12.30;99.90;;;;;;5114122;28;20040;-75
2022/05/07 01:44:36;;;;;;;20.92;12.63;;;12.30;99.90;;;;;;5114089;28;20449;-75
2022/05/07 01:49:47;;;;;;;16.85;12.18;;;12.40;99.90;;;;;;5114347;28;20395;-75
2022/05/07 01:52:13;;;;;;;21.33;12.38;;;12.40;99.90;;;;;;5113971;28;20051;-76
2022/05/07 01:54:39;;;;;;;17.48;12.52;;;12.40;99.90;;;;;;5114076;28;20048;-77
2022/05/07 01:57:05;;;;;;;21.57;13.70;;;12.40;99.90;;;;;;5113670;28;20036;-76
2022/05/07 01:59:30;;;;;;;21.52;14.40;;;12.40;99.90;;;;;;5113993;28;20410;-76
2022/05/07 02:01:56;;;;;;;18.83;13.07;;;12.40;99.90;;;;;;5113647;28;20130;-76
2022/05/07 02:04:22;;;;;;;22.92;13.52;;;12.40;99.90;;;;;;5113830;28;20050;-75
2022/05/07 02:06:48;;;;;;;20.90;13.17;;;12.40;99.90;;;;;;5113853;28;20047;-76
2022/05/07 02:09:13;;;;;;;21.63;13.98;;;12.40;99.90;;;;;;5113670;28;20534;-76
2022/05/07 02:11:39;;;;;;;19.48;14.40;;;12.40;99.90;;;;;;5116439;28;20043;-76
2022/05/07 02:14:05;;;;;;;20.77;14.43;;;12.40;99.90;;;;;;5117330;28;20551;-76
2022/05/07 02:16:31;;;;;;;22.58;14.48;;;12.40;99.90;;;;;;5117788;28;20075;-76
2022/05/07 02:18:57;;;;;;;21.23;14.13;;;12.30;99.90;;;;;;5117815;28;20040;-77
2022/05/07 02:21:22;;;;;;;22.88;14.45;;;12.30;99.90;;;;;;5117707;28;20104;-76
2022/05/07 02:23:48;;;;;;;19.77;13.93;;;12.40;99.90;;;;;;5117701;28;20138;-76
2022/05/07 02:26:13;;;;;;;18.80;14.05;;;12.30;99.90;;;;;;5117505;28;20047;-77
2022/05/07 02:28:39;;;;;;;21.08;15.20;;;12.30;99.90;;;;;;5116400;28;20052;-76
2022/05/07 02:31:04;;;;;;;24.63;14.47;;;12.40;99.90;;;;;;5117418;28;20096;-77
2022/05/07 02:33:30;;;;;;;23.77;14.67;;;12.40;99.90;;;;;;5117358;28;20036;-77
2022/05/07 02:35:55;;;;;;;22.73;14.82;;;12.40;99.90;;;;;;5117117;28;20058;-76
2022/05/07 02:38:21;;;;;;;22.38;14.75;;;12.40;99.90;;;;;;5117636;28;20126;-76
2022/05/07 02:43:30;;;;;;;21.63;15.65;;;12.40;99.90;;;;;;5117600;28;20043;-76
2022/05/07 02:45:56;;;;;;;19.63;13.97;;;12.40;99.90;;;;;;5117229;28;20043;-77
2022/05/07 02:48:22;;;;;;;19.92;13.98;;;12.40;99.90;;;;;;5117126;28;20044;-76
2022/05/07 02:50:48;;;;;;;25.77;15.43;;;12.40;99.90;;;;;;5117234;28;20127;-77
2022/05/07 02:53:13;;;;;;;20.85;14.93;;;12.40;99.90;;;;;;5116933;28;20386;-77
2022/05/07 02:55:39;;;;;;;20.40;15.73;;;12.40;99.90;;;;;;5117029;28;20050;-76
2022/05/07 02:58:06;;;;;;;21.07;15.37;;;12.40;99.90;;;;;;5116901;28;20407;-76
2022/05/07 03:00:32;;;;;;;23.10;15.65;;;12.40;99.90;;;;;;5117294;28;20552;-76
2022/05/07 03:02:58;;;;;;;22.30;16.10;;;12.40;99.90;;;;;;5116854;28;20044;-77
2022/05/07 03:05:23;;;;;;;24.48;16.08;;;12.40;99.90;;;;;;5116845;28;20043;-76
2022/05/07 03:07:49;;;;;;;24.13;15.35;;;12.40;99.90;;;;;;5116894;28;20062;-77
2022/05/07 03:10:15;;;;;;;23.15;15.68;;;12.40;99.90;;;;;;5116440;28;20054;-75
2022/05/07 03:12:41;;;;;;;25.03;15.93;;;12.40;99.90;;;;;;5116715;28;20040;-75
2022/05/07 03:15:07;;;;;;;24.30;16.42;;;12.40;99.90;;;;;;5116965;28;20052;-76
2022/05/07 03:17:34;;;;;;;28.48;15.95;;;12.40;99.90;;;;;;5116141;28;20096;-75
2022/05/07 03:20:00;;;;;;;25.15;15.75;;;12.40;99.90;;;;;;5116491;28;20438;-75
2022/05/07 03:22:26;;;;;;;23.10;15.88;;;12.40;99.90;;;;;;5115602;28;20039;-75
2022/05/07 03:24:51;;;;;;;22.73;15.70;;;12.40;99.90;;;;;;5116247;28;20047;-75
2022/05/07 03:27:17;;;;;;;24.88;16.63;;;12.40;99.90;;;;;;5116332;28;20040;-77
2022/05/07 03:29:42;;;;;;;22.38;16.25;;;12.40;99.90;;;;;;5116727;28;20083;-75
2022/05/07 03:32:09;;;;;;;22.98;16.08;;;12.40;99.90;;;;;;5116122;28;20129;-75
2022/05/07 03:34:35;;;;;;;25.35;16.77;;;12.40;99.90;;;;;;5116260;28;20047;-76
2022/05/07 03:37:00;;;;;;;24.15;17.25;;;12.40;99.90;;;;;;5116252;28;20039;-76
2022/05/07 03:39:26;;;;;;;26.13;17.30;;;12.50;99.90;;;;;;5116183;28;20043;-75
2022/05/07 03:41:53;;;;;;;27.67;18.40;;;12.50;99.90;;;;;;5116966;28;20080;-76
2022/05/07 03:44:18;;;;;;;30.80;18.48;;;12.50;99.90;;;;;;5116113;28;20039;-77
2022/05/07 03:46:44;;;;;;;28.23;19.03;;;12.50;99.90;;;;;;5116029;28;20526;-76
2022/05/07 03:49:10;;;;;;;27.85;19.23;;;12.50;99.90;;;;;;5116196;28;20039;-77
2022/05/07 03:54:19;;;;;;;27.55;18.48;;;12.50;99.90;;;;;;5115798;28;20047;-76
2022/05/07 03:56:45;;;;;;;27.90;18.30;;;12.50;99.90;;;;;;5115025;28;20050;-76
2022/05/07 03:59:11;;;;;;;27.13;19.25;;;12.50;99.90;;;;;;5116280;28;20140;-77
2022/05/07 04:01:36;;;;;;;25.48;18.52;;;12.50;99.90;;;;;;5114896;28;20510;-77
2022/05/07 04:04:02;;;;;;;24.38;18.48;;;12.50;99.90;;;;;;5115637;28;20039;-76
2022/05/07 04:06:28;;;;;;;25.35;18.42;;;12.40;99.90;;;;;;5115568;28;20513;-77
2022/05/07 04:08:54;;;;;;;27.65;18.60;;;12.40;99.90;;;;;;5115636;28;20044;-76
2022/05/07 04:11:19;;;;;;;29.45;18.95;;;12.40;99.90;;;;;;5115504;28;20043;-76
2022/05/07 04:13:45;;;;;;;27.05;19.17;;;12.40;99.90;;;;;;5115907;28;20055;-76
2022/05/07 04:16:10;;;;;;;26.43;17.50;;;12.40;99.90;;;;;;5115512;28;20051;-76
2022/05/07 04:18:36;;;;;;;27.63;19.17;;;12.40;99.90;;;;;;5115098;28;20122;-76
2022/05/07 04:21:02;;;;;;;26.90;18.65;;;12.40;99.90;;;;;;5115384;28;20047;-76
2022/05/07 04:23:27;;;;;;;28.27;19.05;;;12.40;99.90;;;;;;5115545;28;20079;-76
2022/05/07 04:25:53;;;;;;;28.85;20.58;;;12.40;99.90;;;;;;5115310;28;20387;-76
2022/05/07 04:28:18;;;;;;;28.83;18.42;;;12.40;99.90;;;;;;5114881;28;20047;-76
2022/05/07 04:30:44;;;;;;;32.33;19.88;;;12.40;99.90;;;;;;5115324;28;20436;-77
2022/05/07 04:33:09;;;;;;;29.45;19.38;;;12.40;99.90;;;;;;5115043;28;20036;-76
2022/05/07 04:35:35;;;;;;;28.98;19.67;;;12.40;99.90;;;;;;5115002;28;20039;-77
2022/05/07 04:38:01;;;;;;;30.42;21.17;;;12.50;99.90;;;;;;5114951;28;20039;-77
2022/05/07 04:40:26;;;;;;;27.38;19.00;;;12.50;99.90;;;;;;5114977;28;20104;-75
2022/05/07 04:42:52;;;;;;;28.13;18.30;;;12.50;99.90;;;;;;5115009;28;20038;-77
2022/05/07 04:45:18;;;;;;;26.50;18.52;;;12.50;99.90;;;;;;5114829;28;20445;-75
2022/05/07 04:47:43;;;;;;;30.02;18.35;;;12.60;99.90;;;;;;5114861;28;20051;-76
2022/05/07 04:50:09;;;;;;;31.20;18.02;;;12.60;99.90;;;;;;5114885;28;20411;-76
2022/05/07 04:52:36;;;;;;;27.73;18.15;;;12.60;99.90;;;;;;5114546;28;20035;-78
2022/05/07 04:55:02;;;;;;;25.88;17.83;;;12.70;99.90;;;;;;5113477;28;20039;-77
2022/05/07 04:57:28;;;;;;;27.20;18.13;;;12.70;99.90;;;;;;5114621;28;20127;-77
2022/05/07 04:59:54;;;;;;;24.42;18.08;;;12.80;99.90;;;;;;5113659;28;20043;-76
2022/05/07 05:02:20;;;;;;;27.23;18.73;;;12.90;99.90;;;;;;5114708;28;20043;-77
2022/05/07 05:04:45;;;;;;;30.27;19.73;;;12.90;99.90;;;;;;5114670;28;20054;-76
2022/05/07 05:07:11;;;;;;;27.20;17.55;;;13.00;99.90;;;;;;5114431;28;20048;-77
2022/05/07 05:09:36;;;;;;;25.33;16.30;;;13.00;99.90;;;;;;5114957;28;20130;-74
2022/05/07 05:12:03;;;;;;;25.90;17.00;;;13.10;99.90;;;;;;5114289;28;20043;-78
2022/05/07 05:17:12;;;;;;;25.67;18.05;;;13.20;99.90;;;;;;5114408;28;20051;-77
2022/05/07 05:19:38;;;;;;;24.93;16.63;;;13.30;99.90;;;;;;5114358;28;20464;-77
2022/05/07 05:22:03;;;;;;;27.38;17.70;;;13.30;99.90;;;;;;5114222;28;20050;-75
2022/05/07 05:24:29;;;;;;;27.00;17.33;;;13.40;99.90;;;;;;5114183;28;20422;-76
2022/05/07 05:26:54;;;;;;;23.35;16.90;;;13.40;99.90;;;;;;5114408;28;20055;-75
2022/05/07 05:29:20;;;;;;;24.40;16.70;;;13.50;99.90;;;;;;5114459;28;20437;-75
2022/05/07 05:31:46;;;;;;;24.90;17.20;;;13.60;99.90;;;;;;5114208;28;20039;-77
2022/05/07 05:34:11;;;;;;;26.55;17.08;;;13.60;99.90;;;;;;5114180;28;20047;-75
2022/05/07 05:36:37;;;;;;;26.07;17.47;;;13.60;99.90;;;;;;5113850;28;20044;-76
2022/05/07 05:39:06;;;;;;;26.70;17.53;;;13.70;99.90;;;;;;5113943;28;20408;-76
2022/05/07 05:41:31;;;;;;;26.13;18.15;;;13.70;99.90;;;;;;5113919;28;20119;-78
2022/05/07 05:43:57;;;;;;;21.97;15.47;;;13.70;99.90;;;;;;5113932;28;20075;-78
2022/05/07 05:46:22;;;;;;;26.60;17.40;;;13.80;99.90;;;;;;5116615;28;20052;-77
2022/05/07 05:48:48;;;;;;;24.65;16.73;;;13.80;99.90;;;;;;5118322;28;20131;-81
2022/05/07 05:51:13;;;;;;;26.25;17.65;;;13.80;99.90;;;;;;5118392;28;20493;-79
2022/05/07 05:53:39;;;;;;;22.23;16.88;;;13.80;99.90;;;;;;5118596;28;20040;-79
2022/05/07 05:56:04;;;;;;;22.73;16.70;;;13.80;99.90;;;;;;5117735;28;20044;-77
2022/05/07 05:58:33;;;;;;;27.42;17.65;;;13.80;99.90;;;;;;5119111;28;20039;-80
2022/05/07 06:01:06;;;;;;;26.77;18.02;;;13.80;99.90;;;;;;5118167;28;20143;-77
2022/05/07 06:03:32;;;;;;;28.17;17.13;;;13.80;99.90;;;;;;5118042;28;20048;-82
2022/05/07 06:05:58;;;;;;;26.80;18.27;;;13.80;99.90;;;;;;5118658;28;20069;-79
2022/05/07 06:08:23;;;;;;;22.23;16.73;;;13.80;99.90;;;;;;5117624;28;20036;-82
2022/05/07 06:10:54;;;;;;;23.98;17.02;;;13.90;99.90;;;;;;5117323;28;20039;-81
2022/05/07 06:13:19;;;;;;;24.70;17.52;;;13.80;99.90;;;;;;5116686;28;20160;-81
2022/05/07 06:15:49;;;;;;;29.73;18.90;;;13.90;99.90;;;;;;5117937;28;20086;-78
2022/05/07 06:18:14;;;;;;;26.13;17.52;;;13.90;99.90;;;;;;5117228;28;20483;-80
2022/05/07 06:20:40;;;;;;;26.63;16.37;;;13.90;99.90;;;;;;5132892;27;20049;-79
2022/05/07 06:23:05;;;;;;;23.25;16.88;;;14.00;99.90;;;;;;5136966;27;20043;-77
2022/05/07 06:28:26;;;;;;;27.38;17.02;;;14.20;99.90;;;;;;5082798;27;20048;-76
2022/05/07 06:30:52;;;;;;;20.87;16.40;;;14.30;99.90;;;;;;5137865;27;20043;-76
2022/05/07 06:33:18;;;;;;;21.60;16.45;;;14.50;99.90;;;;;;5138005;27;20043;-82
2022/05/07 06:35:44;;;;;;;22.00;15.57;;;14.60;99.90;;;;;;5136872;27;20471;-79
2022/05/07 06:38:11;;;;;;;27.30;16.15;;;14.90;99.90;;;;;;5116908;27;20047;-78
2022/05/07 06:40:38;;;;;;;21.45;15.45;;;15.10;99.90;;;;;;5115176;28;20048;-78
2022/05/07 06:43:04;;;;;;;;;;;15.20;99.90;;;;;;5115001;28;20122;-78
2022/05/07 06:45:30;;;;;;;23.48;15.05;;;15.40;99.90;;;;;;5115950;28;19920;-78
2022/05/07 06:47:55;;;;;;;20.03;14.40;;;15.50;99.90;;;;;;5114956;28;20039;-78
2022/05/07 06:50:21;;;;;;;19.03;14.17;;;15.70;99.90;;;;;;5116074;28;20044;-78
2022/05/07 06:52:47;;;;;;;20.43;14.23;;;15.80;99.90;;;;;;5116996;28;20043;-78
2022/05/07 06:55:17;;;;;;;22.33;14.32;;;15.90;99.90;;;;;;5117224;28;20048;-79
2022/05/07 06:57:43;;;;;;;23.48;15.20;;;16.00;99.90;;;;;;5115960;28;20043;-79
2022/05/07 07:00:10;;;;;;;23.55;14.00;;;16.00;99.90;;;;;;5117226;28;20126;-78
2022/05/07 07:02:37;;;;;;;22.17;14.32;;;16.00;99.90;;;;;;5116963;28;20035;-78
2022/05/07 07:05:03;;;;;;;17.95;13.43;;;16.10;99.90;;;;;;5116859;28;20043;-77
2022/05/07 07:07:29;;;;;;;18.60;13.67;;;16.20;99.90;;;;;;5116849;28;20583;-77
2022/05/07 07:09:55;;;;;;;20.92;13.25;;;16.20;99.90;;;;;;5117074;28;20094;-77
2022/05/07 07:12:20;;;;;;;19.97;14.57;;;16.20;99.90;;;;;;5116578;28;20074;-77
2022/05/07 07:14:47;;;;;;;20.90;14.43;;;16.20;99.90;;;;;;5116550;28;20498;-77
2022/05/07 07:17:13;;;;;;;17.85;13.65;;;16.20;99.90;;;;;;5116640;28;20040;-77
2022/05/07 07:19:41;;;;;;;22.08;14.75;;;16.30;99.90;;;;;;5115563;28;20058;-78
2022/05/07 07:22:07;;;;;;;18.80;14.25;;;16.40;99.90;;;;;;5116516;28;20083;-77
2022/05/07 07:24:33;;;;;;;22.40;14.17;;;16.50;99.90;;;;;;5081436;28;20051;-78
2022/05/07 07:26:58;;;;;;;19.40;14.27;;;16.60;99.90;;;;;;5116415;28;20044;-77
2022/05/07 07:29:24;;;;;;;17.67;12.60;;;16.80;99.90;;;;;;5116352;28;20084;-78
2022/05/07 07:31:50;;;;;;;17.70;13.00;;;17.10;99.90;;;;;;5116283;28;20173;-78
2022/05/07 07:34:15;;;;;;;17.97;13.53;;;17.40;99.90;;;;;;5117005;28;20403;-77
2022/05/07 07:36:44;;;;;;;19.67;14.47;;;17.70;99.90;;;;;;5116384;28;20055;-78
2022/05/07 07:39:10;;;;;;;19.83;14.00;;;17.90;99.90;;;;;;5116262;28;20047;-78
2022/05/07 07:41:36;;;;;;;21.10;13.60;;;18.00;99.90;;;;;;5116323;28;20437;-78
2022/05/07 07:44:02;;;;;;;23.30;13.43;;;18.10;99.90;;;;;;5116222;28;20123;-79
2022/05/07 07:49:12;;;;;;;25.13;13.93;;;18.00;99.90;;;;;;5116325;28;20090;-78
2022/05/07 07:51:37;;;;;;;18.07;13.27;;;17.90;99.90;;;;;;5116021;28;20405;-78
2022/05/07 07:54:04;;;;;;;19.23;14.00;;;17.80;99.90;;;;;;5116018;28;20467;-78
2022/05/07 07:56:30;;;;;;;;;;;17.90;99.90;;;;;;5116314;28;20494;-79
2022/05/07 07:58:55;;;;;;;20.33;13.95;;;17.70;99.90;;;;;;5115879;28;19919;-78
2022/05/07 08:01:21;;;;;;;20.33;14.50;;;17.70;99.90;;;;;;5115941;28;20043;-78
2022/05/07 08:03:46;;;;;;;26.07;14.67;;;17.80;99.90;;;;;;5115809;28;20039;-78
2022/05/07 08:06:12;;;;;;;21.27;14.40;;;17.70;99.90;;;;;;5115849;28;20051;-78
2022/05/07 08:11:40;;;;;;;20.45;14.98;;;17.90;99.90;;;;;;5115599;28;20051;-78
2022/05/07 08:14:06;;;;;;;20.98;14.52;;;18.10;99.90;;;;;;5115551;28;20101;-78
2022/05/07 08:16:32;;;;;;;19.20;15.00;;;18.30;99.90;;;;;;5114270;28;20384;-78
2022/05/07 08:18:58;;;;;;;18.23;14.33;;;18.50;99.90;;;;;;5115694;28;20050;-78
2022/05/07 08:21:24;;;;;;;18.90;14.93;;;18.50;99.90;;;;;;5115550;28;20043;-77
2022/05/07 08:23:50;;;;;;;19.37;14.00;;;18.50;99.90;;;;;;5115443;28;20043;-77
2022/05/07 08:26:16;;;;;;;25.10;15.13;;;18.50;99.90;;;;;;5115352;28;20387;-77
2022/05/07 08:28:41;;;;;;;21.43;14.90;;;18.50;99.90;;;;;;5115369;28;20177;-77
2022/05/07 08:31:08;;;;;;;23.63;14.70;;;18.60;99.90;;;;;;5115252;27;20569;-78
2022/05/07 08:33:34;;;;;;;20.88;15.63;;;18.60;99.90;;;;;;5115077;28;20122;-77
2022/05/07 08:36:00;;;;;;;19.57;14.63;;;18.60;99.90;;;;;;5115113;27;20128;-77
2022/05/07 08:38:26;;;;;;;18.48;14.40;;;18.70;99.90;;;;;;5114905;28;20051;-79
2022/05/07 08:40:52;;;;;;;19.60;14.87;;;18.70;99.90;;;;;;5114958;28;20426;-77
2022/05/07 08:43:18;;;;;;;21.37;14.47;;;18.90;99.90;;;;;;5114505;28;20043;-77
2022/05/07 08:45:44;;;;;;;;;;;19.20;99.90;;;;;;5115264;28;20124;-78
2022/05/07 08:48:10;;;;;;;19.23;14.10;;;19.30;99.90;;;;;;5115176;28;20023;-78
2022/05/07 08:50:38;;;;;;;21.08;12.98;;;19.30;99.90;;;;;;5114565;28;20506;-78
2022/05/07 08:53:04;;;;;;;19.73;12.27;;;19.40;99.90;;;;;;5114572;28;20065;-78
2022/05/07 08:55:30;;;;;;;18.13;12.83;;;19.40;99.90;;;;;;5114779;28;20052;-79
2022/05/07 08:57:56;;;;;;;17.10;13.00;;;19.60;99.90;;;;;;5114824;28;20485;-79
2022/05/07 09:00:23;;;;;;;20.27;13.37;;;19.90;99.90;;;;;;5114967;28;20044;-78
2022/05/07 09:02:57;;;;;;;18.40;12.75;;;20.00;99.90;;;;;;5114612;28;20039;-79
2022/05/07 09:05:35;;;;;;;20.70;13.00;;;20.00;99.90;;;;;;5114602;28;20048;-77
2022/05/07 09:08:01;;;;;;;15.45;11.90;;;20.00;99.90;;;;;;5115043;28;20050;-78
2022/05/07 09:10:31;;;;;;;17.45;11.45;;;20.10;99.90;;;;;;5114691;28;20084;-78
2022/05/07 09:13:14;;;;;;;17.73;11.25;;;20.20;99.90;;;;;;5113430;28;20047;-78
2022/05/07 09:15:54;;;;;;;13.65;9.90;;;20.50;99.90;;;;;;5114408;28;20539;-78
2022/05/07 09:18:21;;;;;;;19.15;10.02;;;20.60;99.90;;;;;;5114318;28;20043;-78
2022/05/07 09:21:26;;;;;;;17.25;9.70;;;20.60;99.90;;;;;;5114229;28;20043;-78
2022/05/07 09:23:58;;;;;;;19.60;11.60;;;20.50;99.90;;;;;;5114513;28;20040;-78
2022/05/07 09:26:32;;;;;;;17.83;10.70;;;20.50;99.90;;;;;;5114324;28;20044;-78
2022/05/07 09:29:00;;;;;;;15.43;10.48;;;20.40;99.90;;;;;;5113352;28;20432;-78
2022/05/07 09:31:28;;;;;;;14.85;9.25;;;20.20;99.90;;;;;;5114308;28;20121;-78
2022/05/07 09:36:46;;;;;;;17.27;10.73;;;20.20;99.90;;;;;;5114160;28;20136;-78
2022/05/07 09:39:13;;;;;;;15.05;9.70;;;20.10;99.90;;;;;;5114115;28;20035;-78
2022/05/07 09:41:43;;;;;;;19.83;9.82;;;20.10;99.90;;;;;;5114532;28;20403;-78
2022/05/07 09:44:12;;;;;;;15.27;9.65;;;20.00;99.90;;;;;;5114190;28;20488;-78
2022/05/07 09:46:39;;;;;;;13.88;9.38;;;20.00;99.90;;;;;;5113144;28;20055;-78
2022/05/07 09:49:08;;;;;;;19.08;9.55;;;19.90;99.90;;;;;;5112981;28;20047;-78
2022/05/07 09:51:34;;;;;;;18.25;9.93;;;19.90;99.90;;;;;;5114135;28;20035;-78
2022/05/07 09:59:28;;;;;;;16.33;9.18;;;19.30;99.90;;;;;;5114305;28;20052;-78
2022/05/07 10:02:21;;;;;;;21.57;10.37;;;19.30;99.90;;;;;;5113925;28;20126;-78
2022/05/07 10:05:06;;;;;;;18.67;10.63;;;19.10;99.90;;;;;;5114323;28;20050;-78
2022/05/07 10:08:11;;;;;;;21.98;10.32;;;19.10;99.90;;;;;;5114163;28;20130;-79
2022/05/07 10:10:38;;;;;;;17.92;9.85;;;19.20;99.90;;;;;;5113584;28;20059;-79
2022/05/07 10:13:05;;;;;;;14.52;8.65;;;19.20;99.90;;;;;;5113604;28;20479;-79
2022/05/07 10:15:31;;;;;;;20.30;10.88;;;19.50;99.90;;;;;;5112093;28;20082;-79
2022/05/07 10:18:02;;;;;;;15.95;9.70;;;19.50;99.90;;;;;;5114011;28;20130;-79
2022/05/07 10:20:39;;;;;;;19.63;10.23;;;19.60;99.90;;;;;;5114203;28;20399;-79
2022/05/07 10:23:07;;;;;;;17.77;9.60;;;19.70;99.90;;;;;;5113901;28;20035;-78
2022/05/07 10:25:34;;;;;;;18.55;9.32;;;19.70;99.90;;;;;;5113792;28;20051;-79
2022/05/07 10:28:14;;;;;;;17.95;9.63;;;19.90;99.90;;;;;;5113805;28;20039;-78
2022/05/07 10:30:54;;;;;;;19.45;9.40;;;19.90;99.90;;;;;;5114041;28;20051;-78
2022/05/07 10:33:21;;;;;;;16.50;9.55;;;19.90;99.90;;;;;;5117408;28;20039;-78
2022/05/07 10:35:48;;;;;;;17.98;10.20;;;20.00;99.90;;;;;;5117662;28;20087;-79
2022/05/07 10:38:27;;;;;;;19.00;9.55;;;19.90;99.90;;;;;;5117604;28;20089;-79
2022/05/07 10:40:57;;;;;;;15.50;9.18;;;20.00;99.90;;;;;;5117475;28;20475;-79
2022/05/07 10:43:36;;;;;;;17.98;9.77;;;20.00;99.90;;;;;;5117202;28;20548;-79
2022/05/07 10:46:07;;;;;;;16.90;8.27;;;20.00;99.90;;;;;;5117247;28;20048;-79
2022/05/07 10:48:46;;;;;;;16.10;9.02;;;20.10;99.90;;;;;;5117590;28;20489;-79
2022/05/07 10:51:29;;;;;;;18.60;9.60;;;20.20;99.90;;;;;;5117159;28;20086;-79
2022/05/07 10:54:03;;;;;;;15.90;9.82;;;20.30;99.90;;;;;;5117089;28;20088;-79
2022/05/07 10:56:33;;;;;;;14.23;9.52;;;20.30;99.90;;;;;;5117106;28;20051;-79
2022/05/07 10:59:00;;;;;;;15.13;9.00;;;20.40;99.90;;;;;;5117068;28;20126;-79
2022/05/07 11:01:27;;;;;;;13.65;9.10;;;20.40;99.90;;;;;;5116981;28;20130;-79
2022/05/07 11:04:04;;;;;;;15.38;9.68;;;20.50;99.90;;;;;;5117058;28;20096;-79
2022/05/07 11:06:44;;;;;;;14.27;10.20;;;20.50;99.90;;;;;;5116828;28;20083;-79
2022/05/07 11:09:16;;;;;;;22.20;10.63;;;20.50;99.90;;;;;;5116942;28;20043;-79
2022/05/07 11:11:47;;;;;;;19.63;11.15;;;20.50;99.90;;;;;;5116764;28;20051;-79
2022/05/07 11:14:30;;;;;;;18.08;10.82;;;20.50;99.90;;;;;;5115665;28;20453;-78
2022/05/07 11:16:57;;;;;;;19.20;11.07;;;20.40;99.90;;;;;;5116686;28;20043;-78
2022/05/07 11:19:31;;;;;;;19.17;10.68;;;20.20;99.90;;;;;;5116674;28;20462;-79
2022/05/07 11:21:59;;;;;;;17.73;11.40;;;20.20;99.90;;;;;;5115472;28;20051;-78
2022/05/07 11:24:26;;;;;;;19.88;11.85;;;20.10;99.90;;;;;;5115298;28;20044;-78
2022/05/07 11:26:54;;;;;;;16.42;10.85;;;20.00;99.90;;;;;;5116528;28;20044;-78
2022/05/07 11:29:20;;;;;;;18.38;11.00;;;20.00;99.90;;;;;;5115450;28;20054;-78
2022/05/07 11:32:15;;;;;;;18.20;11.77;;;20.20;99.90;;;;;;5116305;28;20134;-78
2022/05/07 11:34:41;;;;;;;21.50;11.65;;;20.40;99.90;;;;;;5102843;28;20058;-78
2022/05/07 11:37:14;;;;;;;15.57;10.55;;;20.60;99.90;;;;;;5116257;28;20040;-79
2022/05/07 11:39:51;;;;;;;19.92;11.05;;;20.70;99.90;;;;;;5116085;28;20528;-79
2022/05/07 11:42:38;;;;;;;20.80;11.23;;;20.80;99.90;;;;;;5116150;28;20046;-78
2022/05/07 11:45:26;;;;;;;16.10;9.67;;;21.00;99.90;;;;;;5115550;28;20085;-79
2022/05/07 11:48:04;;;;;;;;;;;21.00;99.90;;;;;;5116691;28;20446;-79
2022/05/07 11:50:39;;;;;;;15.97;10.43;;;21.10;99.90;;;;;;5114994;28;19920;-79
2022/05/07 11:53:15;;;;;;;19.00;10.90;;;21.10;99.90;;;;;;5116633;28;20297;-78
2022/05/07 11:55:42;;;;;;;15.63;10.25;;;21.20;99.90;;;;;;5116199;28;20481;-78
2022/05/07 11:58:20;;;;;;;14.40;9.23;;;21.30;99.90;;;;;;5115971;28;20407;-78
2022/05/07 12:00:47;;;;;;;13.20;9.52;;;21.30;99.90;;;;;;5116023;28;20047;-78
2022/05/07 12:03:22;;;;;;;14.85;9.35;;;21.40;99.90;;;;;;5115649;27;20044;-79
2022/05/07 12:05:50;;;;;;;13.63;8.95;;;21.40;99.90;;;;;;5115951;28;20047;-79
2022/05/07 12:08:20;;;;;;;14.90;9.90;;;21.50;99.90;;;;;;5116024;28;20046;-79
2022/05/07 12:10:48;;;;;;;18.00;11.27;;;21.40;99.90;;;;;;5115689;28;20117;-79
2022/05/07 12:13:15;;;;;;;18.52;12.30;;;21.40;99.90;;;;;;5115378;28;20039;-77
2022/05/07 12:18:27;;;;;;;15.48;11.43;;;21.30;99.90;;;;;;5115864;28;20047;-78
2022/05/07 12:20:54;;;;;;;14.85;10.95;;;21.50;99.90;;;;;;5114391;28;20051;-77
2022/05/07 12:31:32;;;;;;;12.15;8.00;;;21.50;99.90;;;;;;5115130;28;20047;-79
2022/05/07 12:33:58;;;;;;;13.00;8.07;;;21.60;99.90;;;;;;5115034;28;20043;-79
2022/05/07 12:36:24;;;;;;;11.50;7.43;;;21.90;99.90;;;;;;5115005;28;20040;-78
2022/05/07 12:38:49;;;;;;;15.73;8.53;;;22.00;99.90;;;;;;5113916;28;20127;-78
2022/05/07 12:41:15;;;;;;;12.40;8.33;;;21.90;99.90;;;;;;5114970;28;20383;-78
2022/05/07 12:43:40;;;;;;;13.17;10.13;;;22.10;99.90;;;;;;5114890;28;20057;-79
2022/05/07 12:46:06;;;;;;;15.70;8.77;;;21.80;99.00;;;;;;5114803;28;20043;-78
2022/05/07 12:48:32;;;;;;;12.90;8.00;;;21.60;99.70;;;;;;5114733;28;20035;-78
2022/05/07 12:50:58;;;;;;;14.83;10.40;;;21.50;99.90;;;;;;5114817;28;20043;-78
2022/05/07 12:53:24;;;;;;;15.17;8.93;;;21.50;99.90;;;;;;5114671;28;20036;-78
2022/05/07 12:55:50;;;;;;;15.63;9.07;;;21.50;99.90;;;;;;5113793;28;20104;-78
2022/05/07 12:58:15;;;;;;;12.27;8.07;;;21.40;99.90;;;;;;5114684;28;20079;-78
2022/05/07 13:00:41;;;;;;;12.83;9.10;;;21.20;99.90;;;;;;5114661;28;20082;-79
2022/05/07 13:03:09;;;;;;;13.82;9.20;;;21.40;99.90;;;;;;5114529;28;20541;-79
2022/05/07 13:05:35;;;;;;;11.70;8.60;;;21.50;99.90;;;;;;5114593;28;20046;-79
2022/05/07 13:08:08;;;;;;;16.50;9.30;;;21.60;99.90;;;;;;5114561;28;20054;-80
2022/05/07 13:10:34;;;;;;;17.20;10.07;;;21.60;99.90;;;;;;5113384;28;20039;-80
2022/05/07 13:13:01;;;;;;;15.52;9.60;;;21.50;99.90;;;;;;5113951;28;20043;-79
2022/05/07 13:15:30;;;;;;;16.80;10.48;;;21.40;99.90;;;;;;5115153;28;20059;-79
2022/05/07 13:17:57;;;;;;;18.58;11.15;;;21.40;99.90;;;;;;5114477;28;20056;-80